Weiner, AR (72479)

8:58 AM CST on March 02, 2015 (GMT -0600)
Boward and Wofford | Change Station
CLOSE
Current Station
Personal Weather Station
Location: Waldenburg, AR
Elevation: 243 ft
Nearby Weather Stations
Active Advisory: Winter Storm Watch

Elev 243 ft 35.57 °N, 90.90 °W | Updated 11 minutes ago

Overcast
Overcast
33.1 °F
Feels Like 22 °F
N
18.0
Wind Variable Wind from ENE
Gusts 21.0 mph

Today
High -- | Low -- °F
--% Chance of Precip.
Yesterday
High -- | Low -- °F
Precip. -- in
6:32 AM 5:59 PM
Waxing Gibbous, 91% visible
Pressure 30.52 in
Visibility 10.0 miles
Clouds Overcast 3700 ft
Windchill 22 °F
Dew Point 28 °F
Humidity 82%
Rainfall 0.00 in
Snow Depth Not available.
UV 0 out of 12
Pollen 5.80 out of 12
Ozone Good
PM2.5 Moderate
Flu Activity Regional
METAR KM19 021356Z AUTO 04016KT 10SM OVC037 00/M03 A3051 RMK AO2 T00001033 SLP333

More Conditions Fewer Conditions

Pressure 30.52 in
Visibility 10.0 miles
Clouds Overcast 3700 ft
Windchill 22 °F
Dew Point 28 °F
Humidity 82%
Rainfall 0.00 in
Snow Depth Not available.
UV 0 out of 12
Pollen 5.80 out of 12
Ozone Good
PM2.5 Moderate
Flu Activity Regional
METAR KM19 021356Z AUTO 04016KT 10SM OVC037 00/M03 A3051 RMK AO2 T00001033 SLP333

More Conditions Fewer Conditions

10-Day Weather Forecast

Almanac

Astronomy

Mar. 02, 2015 Rise Set
Actual Time 6:32 AM CST 5:59 PM CST
Civil Twilight 6:07 AM CST 6:25 PM CST
Nautical Twilight 5:37 AM CST 6:54 PM CST
Astronomical Twilight 5:07 AM CST 7:24 PM CST
Moon 3:32 PM CST 4:32 AM CST
Length of Visible Light 12h 18m
Length of Day
11h 27m
Tomorrow will be 2m 13s longer.
Waxing Gibbous, 91% of the Moon is Illuminated
Today
Waxing Gibbous
Mar 5
Full
Mar 13
Last Quarter
Mar 20
New
Mar 27
First Quarter

Today's Extremes

State Highs State Lows

Community

WunderPhotos

Upload Photos

1,801,794 photos uploaded!

Nearby

Air Quality

  Air Quality AQ Index Pollutant
Yesterday Good
PM2.5
Yesterday Good
OZONE
Current Moderate
PM2.5
Current Good
OZONE
Monday Good
PM2.5

Snow Depth

Station Depth Elevation
No new snow has been reported.

Earthquake Activity

City Distance Mag. Time & Date
Lilbourn, Missouri 94 miles 3.1 5:08 PM CST
2015-02-28
Minimum magnitude displayed is 2.5.

Coastal Water Temperatures

Place Temperature
No Stations Reporting

Nearby Weather Stations